sensor_id;sensor_type;location;lat;lon;timestamp;pressure;altitude;pressure_sealevel;temperature;humidity
53916;BME280;39827;49.652;18.770;2022-10-10T00:01:33;97327.53;;;2.95;100.00
53916;BME280;39827;49.652;18.770;2022-10-10T00:04:00;97318.31;;;2.99;100.00
53916;BME280;39827;49.652;18.770;2022-10-10T00:06:26;97328.78;;;2.99;100.00
53916;BME280;39827;49.652;18.770;2022-10-10T00:08:52;97320.22;;;2.90;100.00
53916;BME280;39827;49.652;18.770;2022-10-10T00:11:19;97320.78;;;2.85;100.00
53916;BME280;39827;49.652;18.770;2022-10-10T00:13:44;97321.41;;;3.09;100.00
53916;BME280;39827;49.652;18.770;2022-10-10T00:16:10;97315.75;;;3.06;100.00
53916;BME280;39827;49.652;18.770;2022-10-10T00:18:36;97307.94;;;3.12;100.00
53916;BME280;39827;49.652;18.770;2022-10-10T00:21:02;97314.63;;;3.15;100.00
53916;BME280;39827;49.652;18.770;2022-10-10T00:23:28;97311.50;;;3.05;100.00
53916;BME280;39827;49.652;18.770;2022-10-10T00:25:53;97318.59;;;3.11;100.00
53916;BME280;39827;49.652;18.770;2022-10-10T00:28:19;97301.84;;;3.05;100.00
53916;BME280;39827;49.652;18.770;2022-10-10T00:30:44;97311.75;;;3.10;100.00
53916;BME280;39827;49.652;18.770;2022-10-10T00:33:10;97323.00;;;3.10;100.00
53916;BME280;39827;49.652;18.770;2022-10-10T00:35:36;97318.53;;;3.04;100.00
53916;BME280;39827;49.652;18.770;2022-10-10T00:38:02;97320.16;;;3.05;100.00
53916;BME280;39827;49.652;18.770;2022-10-10T00:40:27;97321.91;;;2.98;100.00
53916;BME280;39827;49.652;18.770;2022-10-10T00:42:53;97328.25;;;2.89;100.00
53916;BME280;39827;49.652;18.770;2022-10-10T00:45:29;97321.28;;;2.96;100.00
53916;BME280;39827;49.652;18.770;2022-10-10T00:48:02;97323.25;;;2.94;100.00
53916;BME280;39827;49.652;18.770;2022-10-10T00:50:30;97315.53;;;2.85;100.00
53916;BME280;39827;49.652;18.770;2022-10-10T00:52:57;97311.31;;;2.84;100.00
53916;BME280;39827;49.652;18.770;2022-10-10T00:55:23;97315.22;;;2.95;100.00
53916;BME280;39827;49.652;18.770;2022-10-10T00:57:49;97313.81;;;2.93;100.00
53916;BME280;39827;49.652;18.770;2022-10-10T01:00:15;97311.31;;;2.84;100.00
53916;BME280;39827;49.652;18.770;2022-10-10T01:02:40;97315.47;;;2.79;100.00
53916;BME280;39827;49.652;18.770;2022-10-10T01:05:06;97309.47;;;2.78;100.00
53916;BME280;39827;49.652;18.770;2022-10-10T01:07:32;97317.97;;;2.87;100.00
53916;BME280;39827;49.652;18.770;2022-10-10T01:10:13;97300.38;;;2.74;100.00
53916;BME280;39827;49.652;18.770;2022-10-10T01:12:52;97305.91;;;2.86;100.00
53916;BME280;39827;49.652;18.770;2022-10-10T01:21:19;97299.13;;;2.70;100.00
53916;BME280;39827;49.652;18.770;2022-10-10T01:24:01;97294.81;;;2.62;100.00
53916;BME280;39827;49.652;18.770;2022-10-10T01:29:30;97299.28;;;2.46;100.00
53916;BME280;39827;49.652;18.770;2022-10-10T01:32:04;97294.59;;;2.42;100.00
53916;BME280;39827;49.652;18.770;2022-10-10T01:34:41;97298.16;;;2.56;100.00
53916;BME280;39827;49.652;18.770;2022-10-10T01:37:36;97298.13;;;2.71;100.00
53916;BME280;39827;49.652;18.770;2022-10-10T01:40:11;97288.03;;;2.68;100.00
53916;BME280;39827;49.652;18.770;2022-10-10T01:42:59;97280.44;;;2.73;100.00
53916;BME280;39827;49.652;18.770;2022-10-10T01:45:26;97285.91;;;2.56;100.00
53916;BME280;39827;49.652;18.770;2022-10-10T01:47:54;97267.59;;;2.34;100.00
53916;BME280;39827;49.652;18.770;2022-10-10T01:50:23;97275.41;;;2.50;100.00
53916;BME280;39827;49.652;18.770;2022-10-10T01:58:30;97279.38;;;2.45;100.00
53916;BME280;39827;49.652;18.770;2022-10-10T02:01:20;97278.38;;;2.46;100.00
53916;BME280;39827;49.652;18.770;2022-10-10T02:03:59;97280.19;;;2.31;100.00
53916;BME280;39827;49.652;18.770;2022-10-10T02:06:32;97269.84;;;2.22;100.00
53916;BME280;39827;49.652;18.770;2022-10-10T02:09:07;97267.72;;;2.26;100.00
53916;BME280;39827;49.652;18.770;2022-10-10T02:11:37;97270.38;;;2.33;100.00
53916;BME280;39827;49.652;18.770;2022-10-10T02:14:25;97274.19;;;2.30;100.00
53916;BME280;39827;49.652;18.770;2022-10-10T02:16:54;97272.38;;;2.31;100.00
53916;BME280;39827;49.652;18.770;2022-10-10T02:19:21;97271.00;;;2.35;100.00
53916;BME280;39827;49.652;18.770;2022-10-10T02:21:49;97270.56;;;2.31;100.00
53916;BME280;39827;49.652;18.770;2022-10-10T02:24:17;97273.25;;;2.38;100.00
53916;BME280;39827;49.652;18.770;2022-10-10T02:26:47;97271.66;;;2.37;100.00
53916;BME280;39827;49.652;18.770;2022-10-10T02:29:18;97274.56;;;2.49;100.00
53916;BME280;39827;49.652;18.770;2022-10-10T02:34:44;97267.91;;;2.46;100.00
53916;BME280;39827;49.652;18.770;2022-10-10T02:37:12;97251.16;;;2.41;100.00
53916;BME280;39827;49.652;18.770;2022-10-10T02:39:50;97266.13;;;2.69;100.00
53916;BME280;39827;49.652;18.770;2022-10-10T02:42:20;97252.88;;;2.33;100.00
53916;BME280;39827;49.652;18.770;2022-10-10T02:44:47;97256.22;;;2.42;100.00
53916;BME280;39827;49.652;18.770;2022-10-10T02:47:12;97264.00;;;2.57;100.00
53916;BME280;39827;49.652;18.770;2022-10-10T02:49:39;97252.66;;;2.50;100.00
53916;BME280;39827;49.652;18.770;2022-10-10T02:52:04;97265.84;;;2.64;100.00
53916;BME280;39827;49.652;18.770;2022-10-10T02:54:30;97256.38;;;2.41;100.00
53916;BME280;39827;49.652;18.770;2022-10-10T02:56:55;97253.97;;;2.39;100.00
53916;BME280;39827;49.652;18.770;2022-10-10T02:59:20;97250.56;;;2.39;100.00
53916;BME280;39827;49.652;18.770;2022-10-10T03:01:46;97257.81;;;2.43;100.00
53916;BME280;39827;49.652;18.770;2022-10-10T03:04:11;97252.84;;;2.48;100.00
53916;BME280;39827;49.652;18.770;2022-10-10T03:06:37;97250.03;;;2.50;100.00
53916;BME280;39827;49.652;18.770;2022-10-10T03:09:04;97248.56;;;2.41;100.00
53916;BME280;39827;49.652;18.770;2022-10-10T03:11:29;97246.81;;;2.48;100.00
53916;BME280;39827;49.652;18.770;2022-10-10T03:13:55;97240.72;;;2.41;100.00
53916;BME280;39827;49.652;18.770;2022-10-10T03:16:20;97250.44;;;2.47;100.00
53916;BME280;39827;49.652;18.770;2022-10-10T03:18:45;97237.63;;;2.52;100.00
53916;BME280;39827;49.652;18.770;2022-10-10T03:21:11;97236.59;;;2.53;100.00
53916;BME280;39827;49.652;18.770;2022-10-10T03:23:36;97232.63;;;2.36;100.00
53916;BME280;39827;49.652;18.770;2022-10-10T03:26:02;97242.84;;;2.52;100.00
53916;BME280;39827;49.652;18.770;2022-10-10T03:28:28;97237.09;;;2.42;100.00
53916;BME280;39827;49.652;18.770;2022-10-10T03:30:53;97229.06;;;2.43;100.00
53916;BME280;39827;49.652;18.770;2022-10-10T03:33:20;97224.41;;;2.39;100.00
53916;BME280;39827;49.652;18.770;2022-10-10T03:35:46;97228.06;;;2.44;100.00
53916;BME280;39827;49.652;18.770;2022-10-10T03:38:12;97229.13;;;2.50;100.00
53916;BME280;39827;49.652;18.770;2022-10-10T03:40:39;97218.72;;;2.57;100.00
53916;BME280;39827;49.652;18.770;2022-10-10T03:43:08;97224.53;;;2.52;100.00
53916;BME280;39827;49.652;18.770;2022-10-10T03:45:34;97219.19;;;2.39;100.00
53916;BME280;39827;49.652;18.770;2022-10-10T03:47:59;97214.94;;;2.38;100.00
53916;BME280;39827;49.652;18.770;2022-10-10T03:50:25;97228.22;;;2.58;100.00
53916;BME280;39827;49.652;18.770;2022-10-10T03:52:50;97231.88;;;2.64;100.00
53916;BME280;39827;49.652;18.770;2022-10-10T03:55:15;97229.53;;;2.69;100.00
53916;BME280;39827;49.652;18.770;2022-10-10T03:57:41;97221.94;;;2.52;100.00
53916;BME280;39827;49.652;18.770;2022-10-10T04:00:07;97221.41;;;2.42;100.00
53916;BME280;39827;49.652;18.770;2022-10-10T04:02:32;97226.69;;;2.27;100.00
53916;BME280;39827;49.652;18.770;2022-10-10T04:04:58;97228.50;;;2.26;100.00
53916;BME280;39827;49.652;18.770;2022-10-10T04:07:23;97230.63;;;2.38;100.00
53916;BME280;39827;49.652;18.770;2022-10-10T04:09:48;97222.72;;;2.31;100.00
53916;BME280;39827;49.652;18.770;2022-10-10T04:12:14;97236.53;;;2.25;100.00
53916;BME280;39827;49.652;18.770;2022-10-10T04:14:39;97236.81;;;2.15;100.00
53916;BME280;39827;49.652;18.770;2022-10-10T04:17:05;97230.16;;;2.12;100.00
53916;BME280;39827;49.652;18.770;2022-10-10T04:19:30;97230.75;;;2.29;100.00
53916;BME280;39827;49.652;18.770;2022-10-10T04:21:55;97227.88;;;2.24;100.00
53916;BME280;39827;49.652;18.770;2022-10-10T04:24:21;97234.59;;;2.33;100.00
53916;BME280;39827;49.652;18.770;2022-10-10T04:26:46;97231.84;;;2.20;100.00
53916;BME280;39827;49.652;18.770;2022-10-10T04:29:11;97235.28;;;2.20;100.00
53916;BME280;39827;49.652;18.770;2022-10-10T04:31:37;97220.16;;;2.16;100.00
53916;BME280;39827;49.652;18.770;2022-10-10T04:34:02;97229.31;;;2.27;100.00
53916;BME280;39827;49.652;18.770;2022-10-10T04:36:27;97230.38;;;2.32;100.00
53916;BME280;39827;49.652;18.770;2022-10-10T04:38:53;97228.50;;;2.26;100.00
53916;BME280;39827;49.652;18.770;2022-10-10T04:41:18;97213.63;;;2.27;100.00
53916;BME280;39827;49.652;18.770;2022-10-10T04:43:43;97224.31;;;2.47;100.00
53916;BME280;39827;49.652;18.770;2022-10-10T04:46:09;97219.81;;;2.41;100.00
53916;BME280;39827;49.652;18.770;2022-10-10T04:48:35;97224.53;;;2.52;100.00
53916;BME280;39827;49.652;18.770;2022-10-10T04:51:01;97210.16;;;2.41;100.00
53916;BME280;39827;49.652;18.770;2022-10-10T04:53:27;97213.63;;;2.48;100.00
53916;BME280;39827;49.652;18.770;2022-10-10T04:55:52;97223.00;;;2.58;100.00
53916;BME280;39827;49.652;18.770;2022-10-10T04:58:18;97218.13;;;2.55;100.00
53916;BME280;39827;49.652;18.770;2022-10-10T05:00:43;97219.25;;;2.67;100.00
53916;BME280;39827;49.652;18.770;2022-10-10T05:03:09;97208.84;;;2.52;100.00
53916;BME280;39827;49.652;18.770;2022-10-10T05:05:37;97220.44;;;2.65;100.00
53916;BME280;39827;49.652;18.770;2022-10-10T05:08:02;97224.34;;;2.76;100.00
53916;BME280;39827;49.652;18.770;2022-10-10T05:10:27;97210.88;;;2.57;100.00
53916;BME280;39827;49.652;18.770;2022-10-10T05:12:53;97217.88;;;2.71;100.00
53916;BME280;39827;49.652;18.770;2022-10-10T05:15:18;97208.56;;;2.91;100.00
53916;BME280;39827;49.652;18.770;2022-10-10T05:17:45;97202.22;;;3.07;100.00
53916;BME280;39827;49.652;18.770;2022-10-10T05:20:10;97202.72;;;3.24;100.00
53916;BME280;39827;49.652;18.770;2022-10-10T05:22:36;97199.88;;;3.19;100.00
53916;BME280;39827;49.652;18.770;2022-10-10T05:25:01;97203.06;;;3.14;100.00
53916;BME280;39827;49.652;18.770;2022-10-10T05:27:27;97203.44;;;3.04;100.00
53916;BME280;39827;49.652;18.770;2022-10-10T05:29:53;97196.41;;;3.11;100.00
53916;BME280;39827;49.652;18.770;2022-10-10T05:32:20;97211.59;;;3.23;100.00
53916;BME280;39827;49.652;18.770;2022-10-10T05:34:45;97204.25;;;3.11;100.00
53916;BME280;39827;49.652;18.770;2022-10-10T05:37:11;97212.78;;;3.20;100.00
53916;BME280;39827;49.652;18.770;2022-10-10T05:39:36;97199.69;;;3.20;100.00
53916;BME280;39827;49.652;18.770;2022-10-10T05:42:02;97206.44;;;3.36;100.00
53916;BME280;39827;49.652;18.770;2022-10-10T05:44:27;97205.78;;;3.28;100.00
53916;BME280;39827;49.652;18.770;2022-10-10T05:46:52;97208.72;;;3.46;100.00
53916;BME280;39827;49.652;18.770;2022-10-10T05:49:18;97201.03;;;3.45;100.00
53916;BME280;39827;49.652;18.770;2022-10-10T05:51:44;97203.50;;;3.53;100.00
53916;BME280;39827;49.652;18.770;2022-10-10T05:54:09;97203.31;;;3.55;100.00
53916;BME280;39827;49.652;18.770;2022-10-10T05:56:34;97198.88;;;3.55;100.00
53916;BME280;39827;49.652;18.770;2022-10-10T05:59:00;97195.28;;;3.63;100.00
53916;BME280;39827;49.652;18.770;2022-10-10T06:01:25;97199.75;;;3.69;100.00
53916;BME280;39827;49.652;18.770;2022-10-10T06:03:51;97195.91;;;3.65;100.00
53916;BME280;39827;49.652;18.770;2022-10-10T06:06:23;97193.59;;;3.48;100.00
53916;BME280;39827;49.652;18.770;2022-10-10T06:08:48;97197.09;;;3.62;100.00
53916;BME280;39827;49.652;18.770;2022-10-10T06:11:14;97194.28;;;3.64;100.00
53916;BME280;39827;49.652;18.770;2022-10-10T06:13:44;97190.50;;;3.80;100.00
53916;BME280;39827;49.652;18.770;2022-10-10T06:16:11;97183.28;;;3.82;100.00
53916;BME280;39827;49.652;18.770;2022-10-10T06:18:37;97188.13;;;3.85;100.00
53916;BME280;39827;49.652;18.770;2022-10-10T06:21:04;97195.59;;;3.88;100.00
53916;BME280;39827;49.652;18.770;2022-10-10T06:23:31;97189.00;;;4.06;100.00
53916;BME280;39827;49.652;18.770;2022-10-10T06:25:56;97188.63;;;4.23;100.00
53916;BME280;39827;49.652;18.770;2022-10-10T06:28:22;97194.91;;;4.35;100.00
53916;BME280;39827;49.652;18.770;2022-10-10T06:30:47;97192.47;;;4.34;100.00
53916;BME280;39827;49.652;18.770;2022-10-10T06:33:15;97188.47;;;4.58;100.00
53916;BME280;39827;49.652;18.770;2022-10-10T06:35:44;97192.28;;;4.89;100.00
53916;BME280;39827;49.652;18.770;2022-10-10T06:38:10;97197.13;;;4.92;100.00
53916;BME280;39827;49.652;18.770;2022-10-10T06:40:36;97189.28;;;4.92;100.00
53916;BME280;39827;49.652;18.770;2022-10-10T06:43:01;97195.25;;;5.40;100.00
53916;BME280;39827;49.652;18.770;2022-10-10T06:45:28;97188.75;;;6.09;100.00
53916;BME280;39827;49.652;18.770;2022-10-10T06:47:54;97191.13;;;7.94;100.00
53916;BME280;39827;49.652;18.770;2022-10-10T06:50:19;97197.84;;;9.83;100.00
53916;BME280;39827;49.652;18.770;2022-10-10T06:52:45;97198.69;;;11.10;100.00
53916;BME280;39827;49.652;18.770;2022-10-10T06:55:10;97186.94;;;12.35;99.11
53916;BME280;39827;49.652;18.770;2022-10-10T06:57:36;97188.91;;;13.64;97.47
53916;BME280;39827;49.652;18.770;2022-10-10T07:00:02;97194.56;;;13.88;90.10
53916;BME280;39827;49.652;18.770;2022-10-10T07:02:28;97208.56;;;14.63;73.86
53916;BME280;39827;49.652;18.770;2022-10-10T07:04:53;97195.25;;;14.63;75.25
53916;BME280;39827;49.652;18.770;2022-10-10T07:07:18;97203.31;;;15.81;66.11
53916;BME280;39827;49.652;18.770;2022-10-10T07:09:44;97201.44;;;16.37;62.99
53916;BME280;39827;49.652;18.770;2022-10-10T07:12:10;97205.84;;;16.12;64.65
53916;BME280;39827;49.652;18.770;2022-10-10T07:14:35;97191.94;;;16.61;62.98
53916;BME280;39827;49.652;18.770;2022-10-10T07:17:01;97202.97;;;17.67;57.62
53916;BME280;39827;49.652;18.770;2022-10-10T07:19:27;97196.81;;;17.42;61.26
53916;BME280;39827;49.652;18.770;2022-10-10T07:21:52;97198.41;;;17.43;58.85
53916;BME280;39827;49.652;18.770;2022-10-10T07:24:17;97207.84;;;18.09;58.67
53916;BME280;39827;49.652;18.770;2022-10-10T07:26:43;97197.66;;;18.83;56.35
53916;BME280;39827;49.652;18.770;2022-10-10T07:29:08;97191.53;;;19.44;54.46
53916;BME280;39827;49.652;18.770;2022-10-10T07:31:34;97196.75;;;19.91;53.13
53916;BME280;39827;49.652;18.770;2022-10-10T07:33:59;97189.41;;;19.83;53.57
53916;BME280;39827;49.652;18.770;2022-10-10T07:36:25;97189.75;;;21.01;51.96
53916;BME280;39827;49.652;18.770;2022-10-10T07:38:51;97182.09;;;20.48;51.68
53916;BME280;39827;49.652;18.770;2022-10-10T07:41:17;97188.41;;;20.66;50.64
53916;BME280;39827;49.652;18.770;2022-10-10T07:43:44;97193.75;;;21.44;50.19
53916;BME280;39827;49.652;18.770;2022-10-10T07:46:17;97184.75;;;22.33;47.61
53916;BME280;39827;49.652;18.770;2022-10-10T07:48:43;97187.44;;;22.16;41.74
53916;BME280;39827;49.652;18.770;2022-10-10T07:51:08;97179.97;;;22.48;44.09
53916;BME280;39827;49.652;18.770;2022-10-10T07:53:35;97177.44;;;22.34;47.50
53916;BME280;39827;49.652;18.770;2022-10-10T07:56:03;97190.25;;;22.90;45.91
53916;BME280;39827;49.652;18.770;2022-10-10T07:58:29;97194.88;;;22.54;44.06
53916;BME280;39827;49.652;18.770;2022-10-10T08:01:04;97185.56;;;23.17;38.68
53916;BME280;39827;49.652;18.770;2022-10-10T08:03:29;97194.16;;;23.67;41.11
53916;BME280;39827;49.652;18.770;2022-10-10T08:05:55;97191.41;;;23.28;38.51
53916;BME280;39827;49.652;18.770;2022-10-10T08:08:20;97180.03;;;23.13;39.30
53916;BME280;39827;49.652;18.770;2022-10-10T08:10:45;97190.41;;;24.02;37.03
53916;BME280;39827;49.652;18.770;2022-10-10T08:13:11;97188.16;;;24.34;37.10
53916;BME280;39827;49.652;18.770;2022-10-10T08:15:38;97190.41;;;24.32;35.41
53916;BME280;39827;49.652;18.770;2022-10-10T08:18:03;97180.50;;;24.15;36.78
53916;BME280;39827;49.652;18.770;2022-10-10T08:20:29;97191.59;;;25.23;33.48
53916;BME280;39827;49.652;18.770;2022-10-10T08:22:54;97185.81;;;24.02;35.71
53916;BME280;39827;49.652;18.770;2022-10-10T08:25:20;97177.34;;;23.82;35.81
53916;BME280;39827;49.652;18.770;2022-10-10T08:27:45;97181.50;;;24.31;35.10
53916;BME280;39827;49.652;18.770;2022-10-10T08:30:11;97176.66;;;24.37;35.13
53916;BME280;39827;49.652;18.770;2022-10-10T08:32:36;97178.38;;;24.42;34.46
53916;BME280;39827;49.652;18.770;2022-10-10T08:35:02;97175.66;;;23.69;35.81
53916;BME280;39827;49.652;18.770;2022-10-10T08:37:28;97176.03;;;23.89;35.95
53916;BME280;39827;49.652;18.770;2022-10-10T08:39:53;97181.34;;;24.06;34.82
53916;BME280;39827;49.652;18.770;2022-10-10T08:42:40;97171.38;;;23.38;35.09
53916;BME280;39827;49.652;18.770;2022-10-10T08:45:12;97169.03;;;24.18;34.67
53916;BME280;39827;49.652;18.770;2022-10-10T08:50:17;97172.69;;;24.56;33.17
53916;BME280;39827;49.652;18.770;2022-10-10T08:55:28;97166.91;;;24.45;34.25
53916;BME280;39827;49.652;18.770;2022-10-10T09:01:15;97164.06;;;22.90;36.59
53916;BME280;39827;49.652;18.770;2022-10-10T09:09:05;97173.69;;;23.57;35.23
53916;BME280;39827;49.652;18.770;2022-10-10T09:17:13;97154.84;;;23.69;37.69
53916;BME280;39827;49.652;18.770;2022-10-10T09:23:01;97160.19;;;25.97;31.20
53916;BME280;39827;49.652;18.770;2022-10-10T09:25:37;97152.34;;;23.86;34.12
53916;BME280;39827;49.652;18.770;2022-10-10T09:28:11;97160.25;;;23.69;34.91
53916;BME280;39827;49.652;18.770;2022-10-10T09:30:43;97151.44;;;24.45;34.36
53916;BME280;39827;49.652;18.770;2022-10-10T09:35:50;97172.16;;;22.90;36.31
53916;BME280;39827;49.652;18.770;2022-10-10T09:38:32;97154.75;;;22.70;36.83
53916;BME280;39827;49.652;18.770;2022-10-10T09:41:22;97146.53;;;23.06;36.07
53916;BME280;39827;49.652;18.770;2022-10-10T09:43:46;97153.19;;;23.08;37.19
53916;BME280;39827;49.652;18.770;2022-10-10T09:46:12;97134.75;;;22.27;37.09
53916;BME280;39827;49.652;18.770;2022-10-10T09:48:41;97141.19;;;24.17;35.48
53916;BME280;39827;49.652;18.770;2022-10-10T09:51:12;97146.59;;;23.27;36.00
53916;BME280;39827;49.652;18.770;2022-10-10T09:53:39;97135.69;;;23.14;35.34
53916;BME280;39827;49.652;18.770;2022-10-10T09:56:07;97132.63;;;22.86;36.91
53916;BME280;39827;49.652;18.770;2022-10-10T09:58:41;97127.16;;;23.73;34.85
53916;BME280;39827;49.652;18.770;2022-10-10T10:01:47;97136.84;;;24.71;33.96
53916;BME280;39827;49.652;18.770;2022-10-10T10:04:13;97138.88;;;22.42;36.41
53916;BME280;39827;49.652;18.770;2022-10-10T10:06:45;97128.34;;;23.24;35.34
53916;BME280;39827;49.652;18.770;2022-10-10T10:09:15;97129.78;;;23.60;35.83
53916;BME280;39827;49.652;18.770;2022-10-10T10:11:42;97136.97;;;22.34;37.61
53916;BME280;39827;49.652;18.770;2022-10-10T10:16:46;97134.44;;;22.11;37.93
53916;BME280;39827;49.652;18.770;2022-10-10T10:19:34;97131.28;;;22.09;38.83
53916;BME280;39827;49.652;18.770;2022-10-10T10:21:59;97108.72;;;22.40;38.55
53916;BME280;39827;49.652;18.770;2022-10-10T10:24:30;97117.84;;;22.83;36.86
53916;BME280;39827;49.652;18.770;2022-10-10T10:27:18;97122.72;;;23.47;37.77
53916;BME280;39827;49.652;18.770;2022-10-10T10:29:51;97118.44;;;22.98;36.88
53916;BME280;39827;49.652;18.770;2022-10-10T10:40:38;97100.13;;;22.64;37.34
53916;BME280;39827;49.652;18.770;2022-10-10T10:45:55;97096.31;;;21.59;39.34
53916;BME280;39827;49.652;18.770;2022-10-10T10:48:38;97088.16;;;21.91;39.72
53916;BME280;39827;49.652;18.770;2022-10-10T11:07:14;97081.66;;;23.14;36.85
53916;BME280;39827;49.652;18.770;2022-10-10T11:12:51;97082.88;;;22.04;38.50
53916;BME280;39827;49.652;18.770;2022-10-10T11:15:25;97070.78;;;23.62;36.22
53916;BME280;39827;49.652;18.770;2022-10-10T11:23:06;97064.50;;;24.47;35.59
53916;BME280;39827;49.652;18.770;2022-10-10T11:25:42;97065.03;;;25.49;34.75
53916;BME280;39827;49.652;18.770;2022-10-10T11:28:14;97054.63;;;25.26;33.35
53916;BME280;39827;49.652;18.770;2022-10-10T11:30:47;97064.38;;;24.43;34.29
53916;BME280;39827;49.652;18.770;2022-10-10T11:33:38;97050.59;;;25.32;34.52
53916;BME280;39827;49.652;18.770;2022-10-10T11:36:27;97042.16;;;24.38;34.36
53916;BME280;39827;49.652;18.770;2022-10-10T11:39:02;97043.50;;;24.44;33.82
53916;BME280;39827;49.652;18.770;2022-10-10T11:44:38;97038.78;;;23.86;34.67
53916;BME280;39827;49.652;18.770;2022-10-10T11:49:46;97037.47;;;24.13;36.66
53916;BME280;39827;49.652;18.770;2022-10-10T12:00:40;97033.66;;;23.93;34.02
53916;BME280;39827;49.652;18.770;2022-10-10T12:03:08;97018.63;;;24.51;35.45
53916;BME280;39827;49.652;18.770;2022-10-10T12:05:36;97015.56;;;24.52;35.74
53916;BME280;39827;49.652;18.770;2022-10-10T12:08:14;97023.13;;;24.71;35.08
53916;BME280;39827;49.652;18.770;2022-10-10T12:10:47;97019.00;;;23.94;34.42
53916;BME280;39827;49.652;18.770;2022-10-10T12:13:59;97031.97;;;22.76;37.47
53916;BME280;39827;49.652;18.770;2022-10-10T12:16:22;97023.91;;;23.37;37.39
53916;BME280;39827;49.652;18.770;2022-10-10T12:19:03;97016.00;;;23.23;36.38
53916;BME280;39827;49.652;18.770;2022-10-10T12:21:30;97026.00;;;22.62;37.68
53916;BME280;39827;49.652;18.770;2022-10-10T12:30:10;97004.22;;;23.91;37.62
53916;BME280;39827;49.652;18.770;2022-10-10T12:32:45;97002.06;;;22.90;37.12
53916;BME280;39827;49.652;18.770;2022-10-10T12:35:33;97017.34;;;22.77;37.53
53916;BME280;39827;49.652;18.770;2022-10-10T12:38:09;97011.69;;;22.05;39.35
53916;BME280;39827;49.652;18.770;2022-10-10T12:46:39;96982.94;;;22.18;39.45
53916;BME280;39827;49.652;18.770;2022-10-10T12:49:16;96977.44;;;21.87;40.10
53916;BME280;39827;49.652;18.770;2022-10-10T12:51:43;96979.19;;;21.66;40.53
53916;BME280;39827;49.652;18.770;2022-10-10T12:54:23;96980.94;;;20.68;41.39
53916;BME280;39827;49.652;18.770;2022-10-10T12:57:03;96980.09;;;20.99;41.72
53916;BME280;39827;49.652;18.770;2022-10-10T12:59:29;96978.84;;;21.23;43.03
53916;BME280;39827;49.652;18.770;2022-10-10T13:02:03;96971.72;;;20.60;42.62
53916;BME280;39827;49.652;18.770;2022-10-10T13:04:30;96970.94;;;20.28;43.43
53916;BME280;39827;49.652;18.770;2022-10-10T13:06:57;96971.97;;;20.41;43.59
53916;BME280;39827;49.652;18.770;2022-10-10T13:09:25;96963.97;;;20.59;45.03
53916;BME280;39827;49.652;18.770;2022-10-10T13:14:26;96958.56;;;19.95;46.01
53916;BME280;39827;49.652;18.770;2022-10-10T13:16:52;96963.50;;;20.25;47.48
53916;BME280;39827;49.652;18.770;2022-10-10T13:19:23;96963.72;;;20.05;45.33
53916;BME280;39827;49.652;18.770;2022-10-10T13:21:51;96967.75;;;20.57;44.35
53916;BME280;39827;49.652;18.770;2022-10-10T13:24:19;96963.88;;;20.81;43.13
53916;BME280;39827;49.652;18.770;2022-10-10T13:26:49;96957.75;;;20.90;45.14
53916;BME280;39827;49.652;18.770;2022-10-10T13:31:53;96946.94;;;20.00;46.84
53916;BME280;39827;49.652;18.770;2022-10-10T13:34:24;96951.44;;;19.90;44.75
53916;BME280;39827;49.652;18.770;2022-10-10T13:36:56;96939.81;;;19.81;46.32
53916;BME280;39827;49.652;18.770;2022-10-10T13:39:22;96943.78;;;19.38;47.92
53916;BME280;39827;49.652;18.770;2022-10-10T13:41:49;96936.03;;;19.36;52.27
53916;BME280;39827;49.652;18.770;2022-10-10T13:44:21;96951.72;;;19.66;49.22
53916;BME280;39827;49.652;18.770;2022-10-10T13:46:47;96953.00;;;19.46;51.20
53916;BME280;39827;49.652;18.770;2022-10-10T13:49:24;96942.28;;;19.09;47.49
53916;BME280;39827;49.652;18.770;2022-10-10T13:52:00;96934.44;;;18.98;51.79
53916;BME280;39827;49.652;18.770;2022-10-10T13:54:43;96925.09;;;19.10;50.94
53916;BME280;39827;49.652;18.770;2022-10-10T13:59:41;96929.00;;;18.75;49.94
53916;BME280;39827;49.652;18.770;2022-10-10T14:02:15;96930.78;;;18.80;52.17
53916;BME280;39827;49.652;18.770;2022-10-10T14:04:45;96933.56;;;18.61;50.14
53916;BME280;39827;49.652;18.770;2022-10-10T14:07:35;96926.00;;;18.35;55.39
53916;BME280;39827;49.652;18.770;2022-10-10T14:10:05;96921.56;;;17.97;56.54
53916;BME280;39827;49.652;18.770;2022-10-10T14:12:33;96923.16;;;17.31;57.36
53916;BME280;39827;49.652;18.770;2022-10-10T14:15:00;96915.00;;;16.60;62.10
53916;BME280;39827;49.652;18.770;2022-10-10T14:17:27;96915.97;;;16.45;61.92
53916;BME280;39827;49.652;18.770;2022-10-10T14:19:53;96910.09;;;16.18;64.03
53916;BME280;39827;49.652;18.770;2022-10-10T14:22:20;96921.34;;;16.15;67.58
53916;BME280;39827;49.652;18.770;2022-10-10T14:24:46;96907.72;;;15.52;69.35
53916;BME280;39827;49.652;18.770;2022-10-10T14:29:43;96903.75;;;15.49;72.17
53916;BME280;39827;49.652;18.770;2022-10-10T14:32:10;96910.09;;;15.19;73.31
53916;BME280;39827;49.652;18.770;2022-10-10T14:34:35;96914.19;;;15.01;74.31
53916;BME280;39827;49.652;18.770;2022-10-10T14:37:00;96905.53;;;14.69;74.28
53916;BME280;39827;49.652;18.770;2022-10-10T14:39:26;96907.16;;;14.65;78.84
53916;BME280;39827;49.652;18.770;2022-10-10T14:41:51;96903.94;;;14.63;77.08
53916;BME280;39827;49.652;18.770;2022-10-10T14:44:16;96906.59;;;14.68;77.24
53916;BME280;39827;49.652;18.770;2022-10-10T14:46:42;96902.97;;;14.43;80.87
53916;BME280;39827;49.652;18.770;2022-10-10T14:49:16;96908.66;;;14.15;79.56
53916;BME280;39827;49.652;18.770;2022-10-10T14:51:42;96901.22;;;13.97;82.77
53916;BME280;39827;49.652;18.770;2022-10-10T14:54:08;96902.31;;;13.80;85.08
53916;BME280;39827;49.652;18.770;2022-10-10T14:56:33;96900.72;;;13.63;86.05